Time;durP1;ratioP1;P1;durP2;ratioP2;P2;SDS_P1;SDS_P2;PMS_P1;PMS_P2;Temp;Humidity;BMP_temperature;BMP_pressure;BME280_temperature;BME280_humidity;BME280_pressure;Samples;Min_cycle;Max_cycle;Signal;HPM_P1;HPM_P2
2023/04/18 00:00:58;;;;;;;17.23;10.32;;;8.30;99.90;;;;;;5155353;27;20035;-58
2023/04/18 00:03:25;;;;;;;15.60;10.70;;;8.40;99.90;;;;;;5137336;27;20034;-59
2023/04/18 00:05:50;;;;;;;18.85;10.63;;;8.30;99.90;;;;;;5155799;27;20041;-59
2023/04/18 00:08:16;;;;;;;13.93;9.27;;;8.30;99.90;;;;;;5155787;27;20043;-59
2023/04/18 00:10:42;;;;;;;15.02;9.43;;;8.30;99.90;;;;;;5156025;27;20034;-59
2023/04/18 00:13:08;;;;;;;12.85;9.38;;;8.30;99.90;;;;;;5135751;27;20047;-59
2023/04/18 00:15:34;;;;;;;13.32;9.18;;;8.30;99.90;;;;;;5155818;27;20588;-59
2023/04/18 00:18:02;;;;;;;12.30;9.02;;;8.20;99.90;;;;;;5155998;27;20118;-59
2023/04/18 00:20:28;;;;;;;16.25;9.38;;;8.20;99.90;;;;;;5156032;27;20129;-59
2023/04/18 00:22:54;;;;;;;12.25;9.20;;;8.20;99.90;;;;;;5155631;27;20520;-59
2023/04/18 00:25:20;;;;;;;12.77;9.40;;;8.20;99.90;;;;;;5149967;27;20496;-59
2023/04/18 00:27:46;;;;;;;13.32;9.40;;;8.20;99.90;;;;;;5135023;27;20035;-59
2023/04/18 00:30:12;;;;;;;12.93;9.82;;;8.20;99.90;;;;;;5152478;27;20034;-59
2023/04/18 00:32:38;;;;;;;14.27;8.82;;;8.20;99.90;;;;;;5155793;27;20041;-59
2023/04/18 00:35:04;;;;;;;12.57;9.38;;;8.10;99.90;;;;;;5137016;27;20031;-59
2023/04/18 00:37:30;;;;;;;17.27;9.65;;;8.10;99.90;;;;;;5155152;27;20139;-59
2023/04/18 00:39:56;;;;;;;14.85;10.27;;;8.00;99.90;;;;;;5155427;27;20499;-60
2023/04/18 00:42:21;;;;;;;15.40;10.80;;;8.10;99.90;;;;;;5155086;27;20421;-59
2023/04/18 00:44:48;;;;;;;15.15;10.40;;;8.00;99.90;;;;;;5136432;27;20050;-59
2023/04/18 00:47:16;;;;;;;15.05;10.30;;;8.10;99.90;;;;;;5155218;27;20042;-59
2023/04/18 00:49:43;;;;;;;14.32;11.27;;;7.90;99.90;;;;;;5155564;27;20034;-59
2023/04/18 00:52:10;;;;;;;14.57;9.95;;;7.90;99.90;;;;;;5155157;27;20036;-59
2023/04/18 00:54:36;;;;;;;14.20;9.63;;;7.90;99.90;;;;;;5136418;27;20485;-59
2023/04/18 00:57:02;;;;;;;12.75;9.07;;;7.90;99.90;;;;;;5148264;27;20091;-59
2023/04/18 00:59:28;;;;;;;15.13;10.07;;;7.90;99.90;;;;;;5154878;27;20043;-59
2023/04/18 01:01:54;;;;;;;14.00;9.25;;;7.70;99.90;;;;;;5153906;27;20121;-59
2023/04/18 01:04:20;;;;;;;14.25;9.40;;;7.80;99.90;;;;;;5154652;27;20089;-58
2023/04/18 01:06:46;;;;;;;13.10;9.60;;;7.80;99.90;;;;;;5153993;27;20492;-58
2023/04/18 01:09:12;;;;;;;12.82;9.32;;;7.80;99.90;;;;;;5154792;27;20038;-58
2023/04/18 01:11:38;;;;;;;12.25;9.45;;;7.70;99.90;;;;;;5154628;27;20065;-58
2023/04/18 01:14:06;;;;;;;14.43;9.55;;;7.70;99.90;;;;;;5154500;27;20091;-59
2023/04/18 01:16:32;;;;;;;17.35;9.48;;;7.70;99.90;;;;;;5155060;27;20035;-59
2023/04/18 01:19:02;;;;;;;13.70;9.68;;;7.70;99.90;;;;;;5154577;27;20456;-59
2023/04/18 01:21:36;;;;;;;13.63;10.40;;;7.60;99.90;;;;;;5154879;27;20027;-58
2023/04/18 01:24:15;;;;;;;13.98;9.88;;;7.60;99.90;;;;;;5155117;27;20090;-59
2023/04/18 01:26:42;;;;;;;;;;;7.60;99.90;;;;;;5154972;27;20113;-59
2023/04/18 01:29:09;;;;;;;16.88;10.07;;;7.60;99.90;;;;;;5136241;27;19966;-59
2023/04/18 01:31:35;;;;;;;15.27;9.95;;;7.60;99.90;;;;;;5154666;27;20042;-58
2023/04/18 01:34:01;;;;;;;13.02;9.77;;;7.50;99.90;;;;;;5135817;27;20492;-58
2023/04/18 01:36:27;;;;;;;12.15;9.05;;;7.50;99.90;;;;;;5153444;27;20158;-58
2023/04/18 01:38:53;;;;;;;10.90;9.00;;;7.50;99.90;;;;;;5153774;27;20133;-59
2023/04/18 01:41:18;;;;;;;12.23;9.13;;;7.50;99.90;;;;;;5154393;27;20127;-59
2023/04/18 01:43:44;;;;;;;16.75;10.05;;;7.40;99.90;;;;;;5136145;27;20060;-59
2023/04/18 01:46:10;;;;;;;11.88;9.82;;;7.40;99.90;;;;;;5154361;27;20046;-60
2023/04/18 01:48:36;;;;;;;14.40;9.02;;;7.40;99.90;;;;;;5135657;27;20054;-58
2023/04/18 01:51:01;;;;;;;17.88;10.18;;;7.40;99.90;;;;;;5154414;27;20128;-58
2023/04/18 01:53:27;;;;;;;13.10;8.45;;;7.30;99.90;;;;;;5135788;27;20035;-58
2023/04/18 01:55:53;;;;;;;14.75;9.63;;;7.30;99.90;;;;;;5148429;27;20035;-59
2023/04/18 01:58:22;;;;;;;11.48;8.15;;;7.30;99.90;;;;;;5133408;28;20051;-58
2023/04/18 02:00:56;;;;;;;;;;;7.30;99.90;;;;;;5134405;27;20100;-59
2023/04/18 02:03:22;;;;;;;11.30;8.45;;;7.30;99.90;;;;;;5133450;28;19915;-58
2023/04/18 02:05:48;;;;;;;13.07;8.57;;;7.30;99.90;;;;;;5133316;28;20041;-59
2023/04/18 02:08:14;;;;;;;10.23;7.53;;;7.30;99.90;;;;;;5133231;28;20039;-58
2023/04/18 02:10:40;;;;;;;11.07;7.95;;;7.20;99.90;;;;;;5133318;28;20067;-58
2023/04/18 02:13:06;;;;;;;11.55;7.75;;;7.20;99.90;;;;;;5133578;28;20035;-59
2023/04/18 02:15:32;;;;;;;12.25;8.48;;;7.20;99.90;;;;;;5133352;28;20136;-59
2023/04/18 02:18:01;;;;;;;10.07;7.55;;;7.20;99.90;;;;;;5133506;28;20042;-59
2023/04/18 02:20:30;;;;;;;11.77;8.80;;;7.20;99.90;;;;;;5114901;28;20055;-58
2023/04/18 02:22:57;;;;;;;8.75;6.80;;;7.30;99.90;;;;;;5114989;27;20523;-59
2023/04/18 02:25:25;;;;;;;9.77;7.07;;;7.30;99.90;;;;;;5147110;27;20045;-59
2023/04/18 02:27:51;;;;;;;10.07;7.70;;;7.30;99.90;;;;;;5144464;27;20043;-58
2023/04/18 02:30:17;;;;;;;9.27;7.30;;;7.30;99.90;;;;;;5157795;27;20039;-59
2023/04/18 02:32:43;;;;;;;8.52;6.85;;;7.30;99.90;;;;;;5156475;27;20026;-59
2023/04/18 02:35:10;;;;;;;8.77;6.63;;;7.30;99.90;;;;;;5157325;27;20111;-59
2023/04/18 02:37:35;;;;;;;9.05;6.47;;;7.40;99.90;;;;;;5139074;27;20488;-59
2023/04/18 02:40:03;;;;;;;9.95;6.93;;;7.40;99.90;;;;;;5158037;27;20045;-59
2023/04/18 02:42:30;;;;;;;9.55;7.03;;;7.50;99.90;;;;;;5158074;27;20043;-59
2023/04/18 02:44:56;;;;;;;7.95;6.03;;;7.50;99.90;;;;;;5157817;27;20046;-58
2023/04/18 02:47:21;;;;;;;8.88;6.78;;;7.50;99.90;;;;;;5157630;27;20041;-59
2023/04/18 02:49:47;;;;;;;7.75;6.32;;;7.50;99.90;;;;;;5157369;27;20026;-59
2023/04/18 02:52:13;;;;;;;9.50;6.35;;;7.60;99.90;;;;;;5138727;27;20039;-59
2023/04/18 02:54:39;;;;;;;10.27;6.57;;;7.60;99.90;;;;;;5157803;27;20039;-59
2023/04/18 02:57:05;;;;;;;9.75;6.32;;;7.60;99.90;;;;;;5139326;27;20119;-58
2023/04/18 02:59:30;;;;;;;9.38;6.72;;;7.60;99.90;;;;;;5138445;27;20042;-58
2023/04/18 03:01:56;;;;;;;9.82;6.55;;;7.60;99.90;;;;;;5157068;27;20074;-59
2023/04/18 03:04:21;;;;;;;7.97;6.10;;;7.60;99.90;;;;;;5157416;27;20126;-58
2023/04/18 03:06:48;;;;;;;9.90;6.30;;;7.60;99.90;;;;;;5157348;27;20043;-58
2023/04/18 03:09:14;;;;;;;8.25;5.72;;;7.60;99.90;;;;;;5157496;27;20069;-58
2023/04/18 03:11:40;;;;;;;9.15;6.57;;;7.60;99.90;;;;;;5157022;27;20091;-59
2023/04/18 03:14:05;;;;;;;10.93;6.88;;;7.60;99.90;;;;;;5157138;27;20038;-59
2023/04/18 03:16:31;;;;;;;9.32;6.35;;;7.60;99.90;;;;;;5156575;27;20095;-59
2023/04/18 03:18:57;;;;;;;10.68;6.60;;;7.60;99.90;;;;;;5157345;27;20491;-59
2023/04/18 03:21:22;;;;;;;8.73;6.05;;;7.60;99.90;;;;;;5156932;27;20042;-58
2023/04/18 03:23:48;;;;;;;8.55;6.13;;;7.60;99.90;;;;;;5138295;27;20049;-58
2023/04/18 03:26:14;;;;;;;9.35;6.75;;;7.60;99.90;;;;;;5157043;27;20430;-59
2023/04/18 03:28:40;;;;;;;9.18;6.68;;;7.60;99.90;;;;;;5156983;27;20038;-58
2023/04/18 03:31:06;;;;;;;9.90;6.65;;;7.60;99.90;;;;;;5137919;27;20119;-59
2023/04/18 03:33:31;;;;;;;11.95;6.47;;;7.60;99.90;;;;;;5156842;27;20086;-58
2023/04/18 03:35:58;;;;;;;8.13;6.20;;;7.60;99.90;;;;;;5155421;27;20446;-58
2023/04/18 03:38:23;;;;;;;13.50;6.53;;;7.60;99.90;;;;;;5156649;27;20084;-59
2023/04/18 03:40:49;;;;;;;7.95;6.45;;;7.60;99.90;;;;;;5156965;27;20039;-59
2023/04/18 03:43:15;;;;;;;10.30;6.85;;;7.60;99.90;;;;;;5156824;27;20547;-59
2023/04/18 03:45:41;;;;;;;8.50;6.10;;;7.60;99.90;;;;;;5137729;27;20511;-59
2023/04/18 03:48:06;;;;;;;8.18;6.30;;;7.60;99.90;;;;;;5156381;27;20049;-59
2023/04/18 03:50:32;;;;;;;8.23;6.60;;;7.60;99.90;;;;;;5155987;27;20039;-59
2023/04/18 03:52:58;;;;;;;11.75;6.50;;;7.50;99.90;;;;;;5156171;27;20038;-59
2023/04/18 03:55:25;;;;;;;10.20;6.55;;;7.60;99.90;;;;;;5156247;27;20030;-58
2023/04/18 03:57:51;;;;;;;9.77;6.45;;;7.60;99.90;;;;;;5137581;27;20431;-58
2023/04/18 04:00:16;;;;;;;10.85;6.65;;;7.60;99.90;;;;;;5135337;27;20035;-58
2023/04/18 04:02:42;;;;;;;9.13;5.85;;;7.60;99.90;;;;;;5136838;27;20039;-59
2023/04/18 04:05:08;;;;;;;7.93;5.88;;;7.60;99.90;;;;;;5155139;27;20037;-58
2023/04/18 04:07:34;;;;;;;7.85;6.30;;;7.60;99.90;;;;;;5156072;27;20035;-59
2023/04/18 04:10:00;;;;;;;8.45;6.25;;;7.60;99.90;;;;;;5156188;27;20034;-58
2023/04/18 04:12:26;;;;;;;9.90;6.28;;;7.60;99.90;;;;;;5155946;27;20034;-59
2023/04/18 04:14:51;;;;;;;8.65;6.43;;;7.60;99.90;;;;;;5155755;27;20364;-58
2023/04/18 04:17:17;;;;;;;9.52;6.18;;;7.60;99.90;;;;;;5155835;27;20091;-58
2023/04/18 04:19:43;;;;;;;11.00;6.78;;;7.60;99.90;;;;;;5156153;27;20038;-58
2023/04/18 04:22:08;;;;;;;8.30;6.40;;;7.70;99.90;;;;;;5156013;27;20046;-59
2023/04/18 04:24:37;;;;;;;8.43;6.70;;;7.60;99.90;;;;;;5155033;27;20042;-58
2023/04/18 04:27:03;;;;;;;9.23;6.43;;;7.80;99.90;;;;;;5133879;27;20105;-59
2023/04/18 04:29:30;;;;;;;8.85;6.90;;;7.70;99.90;;;;;;5155922;27;20050;-58
2023/04/18 04:31:55;;;;;;;8.65;6.63;;;7.80;99.90;;;;;;5149157;27;20768;-58
2023/04/18 04:34:21;;;;;;;9.65;7.25;;;7.70;99.90;;;;;;5134690;27;20134;-59
2023/04/18 04:36:47;;;;;;;11.00;7.22;;;7.70;99.90;;;;;;5134784;27;20049;-58
2023/04/18 04:39:18;;;;;;;10.25;6.97;;;7.70;99.90;;;;;;5134599;27;20130;-59
2023/04/18 04:41:45;;;;;;;9.50;6.68;;;7.70;99.90;;;;;;5134581;27;20528;-59
2023/04/18 04:44:11;;;;;;;8.50;6.80;;;7.70;99.90;;;;;;5134689;27;20054;-59
2023/04/18 04:46:39;;;;;;;8.88;6.82;;;7.70;99.90;;;;;;5115886;27;20040;-59
2023/04/18 04:49:05;;;;;;;9.98;7.32;;;7.70;99.90;;;;;;5134910;27;20082;-59
2023/04/18 04:51:30;;;;;;;11.55;6.95;;;7.70;99.90;;;;;;5134829;27;20070;-59
2023/04/18 04:53:56;;;;;;;12.60;7.53;;;7.80;99.90;;;;;;5134477;27;20469;-58
2023/04/18 04:56:22;;;;;;;9.88;7.53;;;7.70;99.90;;;;;;5135517;27;20035;-59
2023/04/18 04:58:48;;;;;;;11.93;7.68;;;7.70;99.90;;;;;;5154010;27;20043;-59
2023/04/18 05:01:15;;;;;;;11.15;7.72;;;7.80;99.90;;;;;;5153738;27;20429;-58
2023/04/18 05:03:41;;;;;;;9.30;7.03;;;7.80;99.90;;;;;;5153897;27;20399;-58
2023/04/18 05:06:07;;;;;;;10.10;7.60;;;7.70;99.90;;;;;;5153809;27;20031;-58
2023/04/18 05:08:33;;;;;;;11.32;7.88;;;7.70;99.90;;;;;;5154393;27;20035;-58
2023/04/18 05:11:00;;;;;;;10.90;7.55;;;7.80;99.90;;;;;;5153887;27;20454;-58
2023/04/18 05:13:25;;;;;;;11.15;8.05;;;7.90;99.90;;;;;;5154520;27;20041;-58
2023/04/18 05:15:51;;;;;;;10.30;7.70;;;7.80;99.90;;;;;;5154729;27;20039;-57
2023/04/18 05:18:17;;;;;;;12.77;8.55;;;7.80;99.90;;;;;;5154284;27;20099;-58
2023/04/18 05:20:42;;;;;;;11.02;7.97;;;7.80;99.90;;;;;;5153146;27;20043;-58
2023/04/18 05:23:08;;;;;;;11.60;7.88;;;7.80;99.90;;;;;;5154001;27;20045;-58
2023/04/18 05:25:35;;;;;;;10.98;8.07;;;7.80;99.90;;;;;;5154293;27;20039;-58
2023/04/18 05:28:03;;;;;;;10.23;8.45;;;7.80;99.90;;;;;;5121208;27;20061;-58
2023/04/18 05:30:29;;;;;;;13.40;7.87;;;7.80;99.90;;;;;;5124979;27;20037;-58
2023/04/18 05:32:55;;;;;;;11.23;7.82;;;7.80;99.90;;;;;;5154178;27;20272;-57
2023/04/18 05:35:20;;;;;;;11.68;8.52;;;7.80;99.90;;;;;;5134553;27;20035;-58
2023/04/18 05:37:46;;;;;;;12.52;9.40;;;7.80;99.90;;;;;;5153923;27;20058;-58
2023/04/18 05:40:12;;;;;;;12.10;8.80;;;7.90;99.90;;;;;;5152706;27;20460;-58
2023/04/18 05:42:38;;;;;;;12.02;8.98;;;7.90;99.90;;;;;;5154055;27;20039;-58
2023/04/18 05:45:04;;;;;;;12.90;9.07;;;8.00;99.90;;;;;;5154151;27;20098;-58
2023/04/18 05:47:32;;;;;;;13.88;8.70;;;8.00;99.90;;;;;;5153204;27;20119;-59
2023/04/18 05:49:58;;;;;;;14.20;8.57;;;8.00;99.90;;;;;;5141061;27;20037;-58
2023/04/18 05:52:24;;;;;;;14.48;8.95;;;8.00;99.90;;;;;;5153359;27;20034;-57
2023/04/18 05:54:50;;;;;;;12.10;8.52;;;8.00;99.90;;;;;;5153536;27;20039;-58
2023/04/18 05:57:16;;;;;;;13.77;9.32;;;8.10;99.90;;;;;;5132033;27;20086;-58
2023/04/18 05:59:42;;;;;;;14.10;8.95;;;8.10;99.90;;;;;;5137658;27;20135;-58
2023/04/18 06:02:12;;;;;;;12.60;8.40;;;8.10;99.90;;;;;;5157942;27;20070;-58
2023/04/18 06:04:38;;;;;;;12.95;9.13;;;8.20;99.90;;;;;;5139266;27;20050;-57
2023/04/18 06:07:04;;;;;;;14.95;8.98;;;8.30;99.90;;;;;;5157925;27;20422;-58
2023/04/18 06:09:30;;;;;;;11.05;7.88;;;8.60;99.90;;;;;;5158332;27;20035;-59
2023/04/18 06:11:56;;;;;;;13.70;8.35;;;8.70;99.90;;;;;;5157928;27;20385;-58
2023/04/18 06:14:22;;;;;;;13.82;7.97;;;8.90;99.90;;;;;;5139530;27;20034;-58
2023/04/18 06:16:48;;;;;;;12.43;7.88;;;8.90;99.90;;;;;;5139391;27;20065;-58
2023/04/18 06:19:14;;;;;;;10.68;8.27;;;8.90;99.90;;;;;;5139352;27;20175;-58
2023/04/18 06:21:41;;;;;;;11.38;7.60;;;8.90;99.90;;;;;;5155502;27;20039;-58
2023/04/18 06:24:07;;;;;;;14.20;8.10;;;9.00;99.90;;;;;;5156176;27;20038;-58
2023/04/18 06:26:33;;;;;;;10.38;7.47;;;9.20;99.90;;;;;;5157283;27;20039;-58
2023/04/18 06:28:59;;;;;;;9.77;7.40;;;9.40;99.90;;;;;;5139410;27;20469;-58
2023/04/18 06:31:24;;;;;;;14.40;8.73;;;9.50;99.90;;;;;;5156320;27;20066;-58
2023/04/18 06:33:50;;;;;;;9.80;8.02;;;9.60;99.90;;;;;;5138871;27;20041;-58
2023/04/18 06:36:16;;;;;;;11.43;7.50;;;9.60;99.90;;;;;;5157363;27;20110;-58
2023/04/18 06:38:41;;;;;;;13.23;7.50;;;9.80;99.90;;;;;;5157481;27;20399;-58
2023/04/18 06:41:07;;;;;;;11.18;7.57;;;9.90;99.90;;;;;;5157400;27;20039;-59
2023/04/18 06:43:34;;;;;;;10.85;7.50;;;10.00;99.90;;;;;;5157571;27;20096;-58
2023/04/18 06:46:01;;;;;;;11.35;6.93;;;10.20;99.90;;;;;;5157346;27;20066;-58
2023/04/18 06:48:26;;;;;;;13.45;7.57;;;10.30;99.90;;;;;;5138617;27;20034;-58
2023/04/18 06:50:52;;;;;;;10.93;7.55;;;10.30;99.90;;;;;;5157523;27;20119;-58
2023/04/18 06:53:17;;;;;;;8.38;6.68;;;10.30;99.90;;;;;;5138384;27;20053;-58
2023/04/18 06:55:43;;;;;;;10.77;6.93;;;10.30;99.90;;;;;;5157282;27;20042;-59
2023/04/18 06:58:09;;;;;;;10.18;7.80;;;10.30;99.90;;;;;;5138568;27;20042;-58
2023/04/18 07:00:35;;;;;;;9.52;7.30;;;10.60;99.90;;;;;;5157117;27;20031;-58
2023/04/18 07:03:04;;;;;;;10.38;7.22;;;10.70;99.90;;;;;;5156023;27;20043;-58
2023/04/18 07:05:30;;;;;;;10.63;6.60;;;10.80;99.90;;;;;;5156304;27;20072;-59
2023/04/18 07:07:55;;;;;;;11.48;7.30;;;10.90;99.90;;;;;;5138350;27;20062;-58
2023/04/18 07:10:21;;;;;;;13.50;7.43;;;10.90;99.90;;;;;;5155927;27;20110;-58
2023/04/18 07:12:46;;;;;;;10.85;7.60;;;11.20;99.90;;;;;;5156593;27;20079;-58
2023/04/18 07:15:12;;;;;;;10.95;7.95;;;11.30;99.90;;;;;;5156751;27;20030;-59
2023/04/18 07:17:38;;;;;;;8.98;6.93;;;11.60;99.90;;;;;;5156470;27;20417;-59
2023/04/18 07:20:04;;;;;;;14.57;7.07;;;11.60;99.90;;;;;;5156485;27;20400;-59
2023/04/18 07:22:30;;;;;;;14.18;7.35;;;11.70;99.90;;;;;;5156731;27;20046;-58
2023/04/18 07:24:55;;;;;;;10.93;7.00;;;11.70;99.90;;;;;;5156746;27;20559;-57
2023/04/18 07:27:21;;;;;;;11.10;7.10;;;11.90;99.90;;;;;;5156617;27;20392;-58
2023/04/18 07:29:47;;;;;;;8.98;7.30;;;11.80;99.90;;;;;;5156407;27;20109;-58
2023/04/18 07:32:12;;;;;;;11.52;7.15;;;11.90;99.90;;;;;;5156433;27;20035;-57
2023/04/18 07:34:39;;;;;;;9.63;7.10;;;12.20;99.90;;;;;;5156412;27;20038;-58
2023/04/18 07:37:05;;;;;;;12.02;7.32;;;12.30;99.90;;;;;;5156345;27;20074;-59
2023/04/18 07:39:34;;;;;;;13.20;7.35;;;12.50;99.90;;;;;;5138258;27;20089;-58
2023/04/18 07:42:01;;;;;;;13.35;8.10;;;12.30;99.90;;;;;;5156480;27;20039;-58
2023/04/18 07:44:26;;;;;;;11.40;8.60;;;12.50;99.90;;;;;;5155274;27;20087;-58
2023/04/18 07:46:52;;;;;;;12.02;7.47;;;12.50;99.90;;;;;;5155992;27;20039;-58
2023/04/18 07:49:18;;;;;;;11.90;7.28;;;12.60;99.90;;;;;;5156157;27;20045;-58
2023/04/18 07:51:43;;;;;;;16.15;9.52;;;12.70;99.90;;;;;;5155425;27;20026;-59
2023/04/18 07:54:10;;;;;;;11.65;7.70;;;12.60;99.90;;;;;;5156125;27;20034;-59
2023/04/18 07:56:35;;;;;;;12.13;8.38;;;12.90;99.90;;;;;;5155875;27;20536;-59
2023/04/18 07:59:01;;;;;;;12.48;7.82;;;12.80;99.90;;;;;;5138150;27;20118;-58
2023/04/18 08:01:27;;;;;;;14.65;7.53;;;13.20;99.90;;;;;;5134909;27;20118;-58
2023/04/18 08:03:53;;;;;;;10.38;7.88;;;13.40;99.90;;;;;;5134913;27;20027;-58
2023/04/18 08:06:20;;;;;;;11.40;7.25;;;13.40;99.90;;;;;;5135074;27;20095;-58
2023/04/18 08:08:46;;;;;;;16.83;8.23;;;13.30;99.90;;;;;;5135297;27;20035;-59
2023/04/18 08:11:11;;;;;;;11.00;7.72;;;13.40;99.90;;;;;;5155725;27;20031;-59
2023/04/18 08:13:37;;;;;;;14.75;7.68;;;13.70;99.90;;;;;;5155632;27;20031;-58
2023/04/18 08:16:03;;;;;;;10.98;7.57;;;13.50;99.90;;;;;;5155409;27;20035;-58
2023/04/18 08:18:29;;;;;;;9.18;7.32;;;13.50;99.90;;;;;;5155448;27;20097;-58
2023/04/18 08:20:54;;;;;;;15.00;9.43;;;13.50;99.90;;;;;;5155157;27;20038;-59
2023/04/18 08:23:20;;;;;;;10.45;6.97;;;13.40;99.90;;;;;;5154978;27;20502;-58
2023/04/18 08:25:46;;;;;;;11.45;7.50;;;13.80;99.90;;;;;;5136119;27;20404;-59
2023/04/18 08:28:12;;;;;;;11.45;6.80;;;14.00;99.90;;;;;;5154803;27;20042;-59
2023/04/18 08:30:38;;;;;;;11.82;7.15;;;13.90;99.90;;;;;;5155103;27;20042;-58
2023/04/18 08:33:04;;;;;;;12.43;7.43;;;13.90;99.90;;;;;;5118771;27;20049;-59
2023/04/18 08:35:29;;;;;;;13.10;7.95;;;14.10;99.90;;;;;;5154910;27;20496;-59
2023/04/18 08:37:55;;;;;;;10.88;7.85;;;14.30;99.90;;;;;;5144526;27;20155;-59
2023/04/18 08:40:21;;;;;;;12.70;7.35;;;14.10;99.60;;;;;;5136743;27;20407;-59
2023/04/18 08:42:48;;;;;;;9.52;7.03;;;14.40;99.90;;;;;;5134265;27;20046;-58
2023/04/18 08:45:13;;;;;;;12.50;7.38;;;14.00;98.70;;;;;;5134214;27;20039;-59
2023/04/18 08:47:42;;;;;;;12.48;7.90;;;14.10;99.60;;;;;;5134099;27;20385;-59
2023/04/18 08:50:09;;;;;;;14.75;7.65;;;14.30;99.70;;;;;;5134407;27;20049;-59
2023/04/18 08:52:36;;;;;;;12.60;7.30;;;14.20;99.00;;;;;;5134202;27;20400;-58
2023/04/18 08:55:03;;;;;;;10.25;6.82;;;14.50;99.60;;;;;;5133941;27;20118;-58
2023/04/18 08:57:29;;;;;;;11.18;6.53;;;14.90;98.80;;;;;;5133949;27;20038;-58
2023/04/18 08:59:56;;;;;;;16.90;8.23;;;14.70;98.50;;;;;;5133643;27;20047;-58
2023/04/18 09:02:45;;;;;;;13.95;7.15;;;14.80;98.40;;;;;;5133643;27;20130;-59
2023/04/18 09:05:15;;;;;;;9.52;6.07;;;14.80;98.80;;;;;;5133680;27;20035;-58
2023/04/18 09:07:41;;;;;;;9.60;7.45;;;15.10;98.80;;;;;;5133640;27;20031;-58
2023/04/18 09:10:08;;;;;;;12.75;7.13;;;15.10;98.10;;;;;;5133755;27;20081;-59
2023/04/18 09:12:41;;;;;;;13.88;7.28;;;14.90;98.20;;;;;;5133434;27;20051;-58
2023/04/18 09:15:12;;;;;;;12.18;7.15;;;15.00;98.50;;;;;;5133375;27;20035;-59
2023/04/18 09:17:50;;;;;;;11.63;7.90;;;15.20;98.00;;;;;;5133549;27;20039;-60
2023/04/18 09:20:33;;;;;;;11.55;7.22;;;15.10;98.10;;;;;;5133543;27;20455;-59
2023/04/18 09:23:01;;;;;;;14.27;7.13;;;15.00;97.90;;;;;;5133228;27;20042;-59
2023/04/18 09:25:34;;;;;;;11.97;7.20;;;15.10;98.60;;;;;;5133341;27;20034;-58
2023/04/18 09:28:04;;;;;;;12.70;7.15;;;15.30;98.90;;;;;;5133604;27;20292;-59
2023/04/18 09:30:35;;;;;;;14.18;7.28;;;15.20;98.00;;;;;;5133226;27;20043;-59
2023/04/18 09:33:02;;;;;;;9.75;7.43;;;15.00;98.50;;;;;;5132581;27;20389;-59
2023/04/18 09:35:28;;;;;;;11.48;7.15;;;14.90;98.60;;;;;;5141998;27;20114;-59
2023/04/18 09:37:54;;;;;;;8.68;7.25;;;14.80;98.50;;;;;;5153124;27;20046;-60
2023/04/18 09:40:21;;;;;;;11.63;7.45;;;15.00;98.80;;;;;;5152837;27;20400;-59
2023/04/18 09:42:47;;;;;;;8.77;6.53;;;14.90;99.10;;;;;;5153670;27;20038;-59
2023/04/18 09:45:14;;;;;;;9.65;6.57;;;15.20;98.90;;;;;;5153728;27;20038;-59
2023/04/18 09:47:39;;;;;;;8.23;6.50;;;15.20;98.80;;;;;;5153621;27;20043;-59
2023/04/18 09:50:07;;;;;;;12.45;6.90;;;15.30;99.10;;;;;;5153433;27;20035;-59
2023/04/18 09:52:35;;;;;;;10.68;6.68;;;15.20;98.80;;;;;;5153495;27;20034;-59
2023/04/18 09:55:03;;;;;;;11.20;6.72;;;15.40;99.30;;;;;;5141255;27;20042;-60
2023/04/18 09:57:30;;;;;;;9.27;6.43;;;15.50;98.80;;;;;;5132830;27;20039;-59
2023/04/18 10:00:22;;;;;;;9.45;5.95;;;15.50;98.50;;;;;;5132845;27;20043;-59
2023/04/18 10:03:06;;;;;;;10.30;6.25;;;15.70;99.10;;;;;;5132700;27;20063;-59
2023/04/18 10:05:38;;;;;;;9.45;5.95;;;15.90;98.80;;;;;;5132837;27;20043;-60
2023/04/18 10:08:04;;;;;;;10.55;6.78;;;15.90;99.00;;;;;;5114448;28;20031;-60
2023/04/18 10:10:31;;;;;;;11.95;6.30;;;15.80;98.40;;;;;;5132664;27;20035;-59
2023/04/18 10:12:59;;;;;;;11.43;6.00;;;15.70;99.10;;;;;;5132439;28;20038;-60
2023/04/18 10:15:26;;;;;;;10.68;5.90;;;16.10;98.80;;;;;;5132792;28;20031;-60
2023/04/18 10:18:08;;;;;;;8.63;6.10;;;15.80;98.60;;;;;;5132811;28;20096;-60
2023/04/18 10:20:34;;;;;;;7.32;6.20;;;15.40;98.90;;;;;;5114242;28;20493;-59
2023/04/18 10:23:34;;;;;;;7.00;5.22;;;15.40;99.40;;;;;;5132487;28;20043;-59
2023/04/18 10:26:04;;;;;;;7.38;5.47;;;15.70;99.70;;;;;;5132600;28;20045;-60
2023/04/18 10:28:51;;;;;;;7.55;5.55;;;15.90;99.80;;;;;;5113880;28;20412;-60
2023/04/18 10:31:17;;;;;;;10.13;5.07;;;15.70;99.50;;;;;;5132424;28;20043;-60
2023/04/18 10:34:06;;;;;;;11.35;5.10;;;15.80;99.90;;;;;;5132247;27;20108;-60
2023/04/18 10:36:32;;;;;;;9.55;6.38;;;15.80;99.90;;;;;;5132571;27;20035;-59
2023/04/18 10:39:20;;;;;;;6.32;5.05;;;16.10;99.90;;;;;;5132288;28;20047;-59
2023/04/18 10:41:50;;;;;;;7.95;4.80;;;16.30;99.90;;;;;;5114101;28;20393;-61
2023/04/18 10:44:23;;;;;;;6.82;5.10;;;16.00;99.80;;;;;;5132343;27;20046;-60
2023/04/18 10:46:51;;;;;;;6.28;4.78;;;16.00;99.90;;;;;;5135787;27;20401;-59
2023/04/18 10:49:17;;;;;;;8.30;4.63;;;16.10;99.90;;;;;;5136244;27;20048;-60
2023/04/18 10:51:53;;;;;;;6.45;4.82;;;16.10;99.90;;;;;;5135968;27;20039;-59
2023/04/18 10:54:29;;;;;;;7.70;5.65;;;16.20;99.90;;;;;;5136120;27;20027;-60
2023/04/18 10:56:56;;;;;;;6.60;4.97;;;15.90;99.70;;;;;;5136274;27;20509;-59
2023/04/18 10:59:23;;;;;;;9.40;5.03;;;16.00;99.90;;;;;;5147645;27;20034;-60
2023/04/18 11:02:12;;;;;;;5.15;4.65;;;15.90;99.90;;;;;;5157146;27;20054;-60
2023/04/18 11:04:38;;;;;;;7.47;4.97;;;15.90;99.80;;;;;;5156659;27;20050;-59
2023/04/18 11:07:04;;;;;;;6.13;4.95;;;15.80;99.90;;;;;;5156543;27;20105;-59
2023/04/18 11:09:29;;;;;;;7.07;4.93;;;16.30;99.90;;;;;;5156822;27;20485;-59
2023/04/18 11:12:21;;;;;;;7.32;5.10;;;16.30;99.90;;;;;;5156684;27;20042;-59
2023/04/18 11:14:50;;;;;;;6.57;5.00;;;16.40;99.70;;;;;;5151722;27;20054;-61
2023/04/18 11:17:25;;;;;;;9.93;5.82;;;16.30;99.90;;;;;;5156262;27;20061;-59
2023/04/18 11:20:10;;;;;;;8.70;5.50;;;16.50;99.90;;;;;;5156174;27;20039;-60
2023/04/18 11:22:53;;;;;;;9.57;5.60;;;16.70;99.80;;;;;;5138031;27;20047;-59
2023/04/18 11:25:22;;;;;;;10.55;5.60;;;16.60;99.70;;;;;;5137661;27;20049;-59
2023/04/18 11:27:54;;;;;;;10.95;6.07;;;16.50;99.90;;;;;;5137621;27;20392;-59
2023/04/18 11:30:20;;;;;;;8.00;5.70;;;16.60;99.90;;;;;;5156190;27;20047;-60
2023/04/18 11:32:46;;;;;;;5.90;5.30;;;16.60;99.90;;;;;;5136960;27;20536;-60
2023/04/18 11:35:13;;;;;;;6.80;5.50;;;16.80;99.90;;;;;;5156375;27;20117;-61
2023/04/18 11:37:41;;;;;;;9.77;5.20;;;16.50;99.90;;;;;;5155811;27;20050;-60
2023/04/18 11:40:11;;;;;;;6.72;4.65;;;16.60;99.90;;;;;;5155944;27;20082;-60
2023/04/18 11:42:38;;;;;;;5.85;5.13;;;16.80;99.90;;;;;;5155808;27;20045;-60
2023/04/18 11:45:11;;;;;;;6.40;4.75;;;16.70;99.90;;;;;;5155969;27;20061;-59
2023/04/18 11:47:38;;;;;;;8.70;4.57;;;16.80;99.90;;;;;;5155891;27;20045;-60
2023/04/18 11:50:06;;;;;;;6.88;4.22;;;17.10;99.80;;;;;;5155696;27;20043;-59
2023/04/18 11:52:33;;;;;;;9.07;4.35;;;16.90;99.90;;;;;;5137100;27;20034;-59
2023/04/18 11:55:16;;;;;;;7.35;4.68;;;17.00;99.90;;;;;;5155400;27;20500;-59
2023/04/18 11:57:48;;;;;;;12.02;4.00;;;17.10;99.90;;;;;;5154511;27;20484;-59
2023/04/18 12:00:14;;;;;;;5.60;4.32;;;17.10;99.50;;;;;;5155615;27;20069;-59
2023/04/18 12:02:44;;;;;;;8.98;4.00;;;16.90;99.80;;;;;;5155334;27;20042;-59
2023/04/18 12:05:13;;;;;;;4.97;3.95;;;17.20;99.50;;;;;;5137830;27;20043;-59
2023/04/18 12:07:46;;;;;;;3.80;3.38;;;17.20;99.90;;;;;;5155070;27;20039;-59
2023/04/18 12:10:22;;;;;;;7.00;3.55;;;17.40;99.90;;;;;;5155485;27;20043;-60
2023/04/18 12:12:53;;;;;;;5.80;3.35;;;17.70;99.90;;;;;;5155447;27;20034;-60
2023/04/18 12:15:22;;;;;;;4.30;3.58;;;17.20;99.40;;;;;;5155375;27;20047;-59
2023/04/18 12:17:50;;;;;;;4.07;3.53;;;16.80;99.90;;;;;;5154987;27;20483;-60
2023/04/18 12:20:17;;;;;;;4.10;2.80;;;16.40;99.90;;;;;;5155112;27;20550;-59
2023/04/18 12:22:48;;;;;;;3.92;2.90;;;16.60;99.90;;;;;;5154879;27;20043;-59
2023/04/18 12:25:26;;;;;;;4.45;3.05;;;16.60;99.90;;;;;;5155185;27;20038;-60
2023/04/18 12:28:13;;;;;;;7.68;3.17;;;16.90;99.90;;;;;;5136344;27;20035;-60
2023/04/18 12:30:39;;;;;;;5.13;2.80;;;16.90;99.50;;;;;;5155159;27;20090;-60
2023/04/18 12:33:05;;;;;;;4.25;3.05;;;17.00;99.30;;;;;;5154956;27;20484;-60
2023/04/18 12:35:31;;;;;;;5.43;2.83;;;17.00;99.90;;;;;;5136276;27;20046;-59
2023/04/18 12:37:59;;;;;;;4.65;2.63;;;16.70;99.90;;;;;;5154719;27;20133;-59
2023/04/18 12:40:26;;;;;;;4.32;3.00;;;16.50;99.90;;;;;;5154666;27;20042;-59
2023/04/18 12:42:52;;;;;;;3.65;2.83;;;16.70;99.90;;;;;;5136053;27;20469;-60
2023/04/18 12:45:20;;;;;;;7.95;3.40;;;16.30;99.90;;;;;;5154740;27;20417;-59
2023/04/18 12:47:47;;;;;;;4.75;3.00;;;16.50;99.90;;;;;;5154730;27;20070;-60